This is the latest recevied weather packets stored in our database for station/object ZR6G-15. If no packets are shown the sender has not sent any weather packets the latest 10 day(s).
| Time | Temp. | Humidity | Pressure | Rain* | Wind** | Luminosity | Snow |
|---|---|---|---|---|---|---|---|
| 1777558219 | 16.67° C | 32% | 1012.7 hPa | - | - | - | - |
| 1777557614 | 17.78° C | 32% | 1012.9 hPa | - | - | - | - |
| 1777557010 | 17.78° C | 30% | 1013 hPa | - | - | - | - |
| 1777556405 | 17.78° C | 30% | 1013 hPa | - | - | - | - |
| 1777555800 | 16.67° C | 32% | 1013.1 hPa | - | - | - | - |
| 1777555194 | 17.78° C | 31% | 1012.7 hPa | - | - | - | - |
| 1777554582 | 17.78° C | 32% | 1012.8 hPa | - | - | - | - |
| 1777553978 | 17.78° C | 31% | 1012.9 hPa | - | - | - | - |
| 1777553373 | 17.78° C | 31% | 1013.3 hPa | - | - | - | - |
| 1777552769 | 17.78° C | 30% | 1013.3 hPa | - | - | - | - |
| 1777552164 | 17.78° C | 29% | 1013.3 hPa | - | - | - | - |
| 1777551560 | 17.78° C | 31% | 1013.6 hPa | - | - | - | - |
| 1777550955 | 17.78° C | 31% | 1013.8 hPa | - | - | - | - |
| 1777550351 | 17.78° C | 32% | 1013.8 hPa | - | - | - | - |
| 1777549746 | 16.67° C | 31% | 1013.8 hPa | - | - | - | - |
| 1777549142 | 17.78° C | 29% | 1013.7 hPa | - | - | - | - |
| 1777548537 | 17.78° C | 31% | 1013.9 hPa | - | - | - | - |
| 1777547932 | 18.89° C | 30% | 1013.7 hPa | - | - | - | - |
| 1777547328 | 18.89° C | 30% | 1013.7 hPa | - | - | - | - |
| 1777546723 | 18.89° C | 31% | 1014.1 hPa | - | - | - | - |
| 1777546118 | 17.78° C | 35% | 1014.9 hPa | - | - | - | - |
| 1777545514 | 16.67° C | 35% | 1015.2 hPa | - | - | - | - |
| 1777544909 | 16.67° C | 38% | 1016.1 hPa | - | - | - | - |
| 1777544305 | 15° C | 41% | 1016.6 hPa | - | - | - | - |
| 1777543700 | 15° C | 41% | 1016.9 hPa | - | - | - | - |
* Rain since midnight (hover to see other rain measurements)
** Current wind speed in m/s (hover to see current wind gust speed)